Time;durP1;ratioP1;P1;durP2;ratioP2;P2;SDS_P1;SDS_P2;PMS_P1;PMS_P2;Temp;Humidity;BMP_temperature;BMP_pressure;BME280_temperature;BME280_humidity;BME280_pressure;Samples;Min_cycle;Max_cycle;Signal;HPM_P1;HPM_P2
2023/12/09 00:01:18;;;;;;;57.90;22.20;;;;;;;-1.29;100.00;99369.73;103801;1282;60484;-32
2023/12/09 00:03:44;;;;;;;58.70;22.20;;;;;;;-1.29;100.00;99372.71;103692;1282;60852;-31
2023/12/09 00:06:10;;;;;;;55.30;20.60;;;;;;;-1.32;100.00;99373.53;103784;1283;60503;-31
2023/12/09 00:08:36;;;;;;;52.50;20.60;;;;;;;-1.30;100.00;99368.78;103696;1283;61013;-31
2023/12/09 00:11:02;;;;;;;54.00;21.70;;;;;;;-1.28;100.00;99364.34;103750;1282;60952;-32
2023/12/09 00:13:28;;;;;;;61.00;23.70;;;;;;;-1.28;100.00;99370.02;103624;1285;60923;-33
2023/12/09 00:15:54;;;;;;;58.20;22.10;;;;;;;-1.25;100.00;99373.64;103708;1281;60656;-33
2023/12/09 00:18:19;;;;;;;60.20;22.10;;;;;;;-1.25;100.00;99372.92;103674;1282;60393;-31
2023/12/09 00:20:45;;;;;;;60.80;21.90;;;;;;;-1.24;100.00;99372.44;103828;1282;60561;-33
2023/12/09 00:23:11;;;;;;;68.00;23.90;;;;;;;-1.18;100.00;99373.56;103806;1283;60540;-35
2023/12/09 00:25:37;;;;;;;56.70;22.00;;;;;;;-1.17;100.00;99378.80;103690;1286;61077;-32
2023/12/09 00:28:03;;;;;;;60.60;22.80;;;;;;;-1.16;100.00;99379.76;103780;1285;60682;-30
2023/12/09 00:30:29;;;;;;;;;;;;;;;-1.13;100.00;99382.85;103809;1286;61502;-30
2023/12/09 00:32:55;;;;;;;53.90;21.80;;;;;;;-1.15;100.00;99376.88;103806;1282;61121;-41
2023/12/09 00:35:21;;;;;;;51.10;20.40;;;;;;;-1.16;100.00;99373.73;103705;1286;60590;-31
2023/12/09 00:37:47;;;;;;;53.50;21.80;;;;;;;-1.15;100.00;99369.81;103645;1283;60611;-30
2023/12/09 00:40:13;;;;;;;50.00;21.30;;;;;;;-1.18;100.00;99376.02;103646;1281;60543;-31
2023/12/09 00:42:39;;;;;;;57.20;22.40;;;;;;;-1.16;100.00;99372.89;103028;1283;1005396;-30
2023/12/09 00:45:05;;;;;;;55.30;21.00;;;;;;;-1.15;100.00;99367.56;103882;1285;60455;-31
2023/12/09 00:47:31;;;;;;;51.00;20.80;;;;;;;-1.16;100.00;99370.42;103705;1281;60646;-30
2023/12/09 00:49:57;;;;;;;51.10;20.40;;;;;;;-1.15;100.00;99370.54;103924;1281;60515;-31
2023/12/09 00:52:23;;;;;;;58.10;22.10;;;;;;;-1.15;100.00;99362.79;103928;1284;60582;-34
2023/12/09 00:54:48;;;;;;;59.60;22.60;;;;;;;-1.20;100.00;99361.45;103755;1281;60445;-31
2023/12/09 00:57:14;;;;;;;49.40;20.60;;;;;;;-1.20;100.00;99362.88;103718;1285;60489;-29
2023/12/09 00:59:40;;;;;;;56.90;22.90;;;;;;;-1.19;100.00;99364.35;103763;1287;60570;-31
2023/12/09 01:02:06;;;;;;;53.50;22.00;;;;;;;-1.15;100.00;99362.69;103962;1284;60584;-30
2023/12/09 01:04:32;;;;;;;58.40;24.60;;;;;;;-1.11;100.00;99370.20;103763;1284;60674;-31
2023/12/09 01:06:57;;;;;;;54.10;21.70;;;;;;;-1.08;100.00;99375.63;103840;1286;60563;-31
2023/12/09 01:09:23;;;;;;;48.00;20.50;;;;;;;-1.08;100.00;99375.08;103738;1284;60562;-32
2023/12/09 01:11:49;;;;;;;55.00;22.90;;;;;;;-1.12;100.00;99375.55;103826;1286;60494;-30
2023/12/09 01:14:15;;;;;;;49.90;20.80;;;;;;;-1.11;100.00;99379.02;103903;1285;60481;-32
2023/12/09 01:16:41;;;;;;;59.80;23.70;;;;;;;-1.08;100.00;99379.30;103627;1283;72118;-30
2023/12/09 01:19:06;;;;;;;54.60;22.30;;;;;;;-1.08;100.00;99382.09;103693;1281;60608;-30
2023/12/09 01:21:32;;;;;;;53.20;21.90;;;;;;;-1.06;100.00;99383.36;103993;1281;60499;-34
2023/12/09 01:23:58;;;;;;;57.60;22.40;;;;;;;-1.04;100.00;99386.48;103774;1283;60577;-40
2023/12/09 01:26:24;;;;;;;57.30;24.00;;;;;;;-1.02;100.00;99387.37;103707;1282;60434;-31
2023/12/09 01:28:50;;;;;;;59.10;23.30;;;;;;;-1.03;100.00;99386.92;103630;1282;60519;-31
2023/12/09 01:31:15;;;;;;;56.80;23.40;;;;;;;-1.03;100.00;99388.17;103617;1285;62177;-30
2023/12/09 01:33:41;;;;;;;54.90;21.40;;;;;;;-1.03;100.00;99383.48;103717;1286;60571;-32
2023/12/09 01:36:07;;;;;;;61.00;22.80;;;;;;;-1.05;100.00;99379.71;103659;1283;60357;-33
2023/12/09 01:38:34;;;;;;;;;;;;;;;-1.03;100.00;99376.79;103623;1282;60510;-31
2023/12/09 01:41:00;;;;;;;55.10;22.30;;;;;;;-1.02;100.00;99381.07;103769;1281;68413;-30
2023/12/09 01:43:26;;;;;;;55.80;22.50;;;;;;;-1.01;100.00;99381.35;103717;1284;60873;-31
2023/12/09 01:45:53;;;;;;;55.30;21.00;;;;;;;-0.97;100.00;99382.61;103850;1283;60447;-33
2023/12/09 01:48:19;;;;;;;46.50;19.70;;;;;;;-0.96;100.00;99377.80;103734;1286;60377;-31
2023/12/09 01:50:45;;;;;;;;;;;;;;;-0.94;100.00;99369.23;103888;1286;60449;-31
2023/12/09 01:53:11;;;;;;;50.70;20.60;;;;;;;-0.96;100.00;99368.62;103777;1283;60633;-31
2023/12/09 02:33:49;;;;;;;59.20;25.70;;;;;;;-1.16;100.00;99377.46;103677;1281;612867;-29
2023/12/09 02:36:17;;;;;;;56.10;23.00;;;;;;;-1.04;100.00;99374.34;103484;1281;230885;-30
2023/12/09 02:38:43;;;;;;;52.70;23.30;;;;;;;-1.05;100.00;99377.64;103670;1282;59241;-30
2023/12/09 02:41:08;;;;;;;55.90;23.00;;;;;;;-1.01;100.00;99376.44;103743;1282;59350;-31
2023/12/09 02:43:35;;;;;;;53.30;22.70;;;;;;;-0.97;100.00;99378.02;103617;1282;59344;-31
2023/12/09 02:46:00;;;;;;;59.00;22.90;;;;;;;-0.96;100.00;99382.38;103650;1281;59254;-29
2023/12/09 02:48:26;;;;;;;55.00;21.80;;;;;;;-0.95;100.00;99386.27;103719;1282;59341;-31
2023/12/09 02:50:52;;;;;;;54.50;21.30;;;;;;;-0.92;100.00;99387.63;103752;1285;59379;-31
2023/12/09 02:53:18;;;;;;;52.70;21.10;;;;;;;-0.86;100.00;99388.77;103646;1282;59286;-32
2023/12/09 02:55:44;;;;;;;51.80;21.40;;;;;;;-0.84;100.00;99388.63;103738;1282;59359;-31
2023/12/09 02:58:10;;;;;;;52.20;21.50;;;;;;;-0.82;100.00;99385.50;103652;1281;59808;-33
2023/12/09 03:00:36;;;;;;;53.00;21.70;;;;;;;-0.76;100.00;99384.79;103746;1282;59924;-34
2023/12/09 03:03:02;;;;;;;;;;;;;;;-0.72;100.00;99386.77;103629;1282;59763;-31
2023/12/09 03:05:27;;;;;;;55.30;20.90;;;;;;;-0.74;100.00;99384.10;103589;1282;59744;-31
2023/12/09 03:07:53;;;;;;;50.30;19.70;;;;;;;-0.69;100.00;99385.49;103643;1281;59639;-31
2023/12/09 03:10:19;;;;;;;47.10;19.40;;;;;;;-0.68;100.00;99380.96;103625;1281;59717;-32
2023/12/09 03:12:45;;;;;;;46.20;20.90;;;;;;;-0.64;100.00;99379.21;103561;1281;59732;-31
2023/12/09 03:15:11;;;;;;;46.10;19.00;;;;;;;-0.62;100.00;99383.95;103659;1286;59760;-33
2023/12/09 03:17:36;;;;;;;52.70;20.60;;;;;;;-0.54;100.00;99388.75;103638;1282;59790;-31
2023/12/09 03:20:03;;;;;;;46.40;18.70;;;;;;;-0.53;100.00;99388.49;103643;1281;59773;-31
2023/12/09 03:22:29;;;;;;;45.20;19.30;;;;;;;-0.50;100.00;99387.89;103785;1281;59794;-32
2023/12/09 03:24:55;;;;;;;43.20;18.40;;;;;;;-0.48;100.00;99390.41;103729;1281;60242;-30
2023/12/09 03:27:21;;;;;;;41.20;18.20;;;;;;;-0.41;100.00;99387.58;103656;1282;59747;-30
2023/12/09 03:29:47;;;;;;;40.90;17.60;;;;;;;-0.42;100.00;99385.31;103786;1287;59785;-30
2023/12/09 03:32:13;;;;;;;43.90;19.30;;;;;;;-0.41;100.00;99383.89;103613;1281;59641;-32
2023/12/09 03:34:38;;;;;;;41.90;17.80;;;;;;;-0.37;100.00;99383.91;103614;1281;59799;-31
2023/12/09 03:37:04;;;;;;;38.60;16.20;;;;;;;-0.38;100.00;99380.27;103681;1281;59788;-32
2023/12/09 03:39:30;;;;;;;45.50;19.00;;;;;;;-0.33;100.00;99383.04;103640;1282;59692;-30
2023/12/09 03:41:56;;;;;;;;;;;;;;;-0.31;100.00;99386.88;103643;1286;59661;-30
2023/12/09 03:44:22;;;;;;;49.70;18.40;;;;;;;-0.31;100.00;99388.27;103610;1282;59711;-30
2023/12/09 03:46:47;;;;;;;;;;;;;;;-0.28;100.00;99384.34;103581;1282;59648;-33
2023/12/09 03:49:13;;;;;;;43.90;18.30;;;;;;;-0.30;100.00;99385.03;103616;1281;59781;-32
2023/12/09 03:51:39;;;;;;;48.60;18.80;;;;;;;-0.30;100.00;99384.34;103675;1282;59756;-29
2023/12/09 03:54:05;;;;;;;42.50;18.10;;;;;;;-0.28;100.00;99387.52;103615;1282;72929;-31
2023/12/09 03:56:31;;;;;;;47.30;18.30;;;;;;;-0.28;100.00;99387.88;103565;1287;59786;-34
2023/12/09 03:58:57;;;;;;;45.20;18.80;;;;;;;-0.26;100.00;99385.20;103649;1286;59793;-34
2023/12/09 04:01:24;;;;;;;49.70;18.10;;;;;;;-0.27;100.00;99387.77;103690;1286;59567;-34
2023/12/09 04:03:50;;;;;;;50.10;19.40;;;;;;;-0.24;100.00;99392.07;103683;1281;59641;-33
2023/12/09 04:06:16;;;;;;;42.70;18.30;;;;;;;-0.24;100.00;99391.72;103661;1281;59750;-32
2023/12/09 04:08:42;;;;;;;43.50;17.10;;;;;;;-0.24;100.00;99388.21;103541;1286;59775;-32
2023/12/09 04:11:09;;;;;;;44.90;17.50;;;;;;;-0.25;100.00;99390.59;103648;1281;59761;-31
2023/12/09 04:13:34;;;;;;;48.20;19.10;;;;;;;-0.20;100.00;99394.26;103696;1281;60030;-31
2023/12/09 04:16:01;;;;;;;47.90;17.50;;;;;;;-0.18;100.00;99393.73;103684;1282;59639;-30
2023/12/09 04:18:27;;;;;;;42.80;17.10;;;;;;;-0.19;100.00;99394.16;103815;1281;59775;-31
2023/12/09 04:20:52;;;;;;;43.40;17.70;;;;;;;-0.20;100.00;99393.71;103732;1281;59763;-33
2023/12/09 14:31:36;;;;;;;87.30;35.90;;;;;;;0.41;100.00;99136.86;103822;1284;613620;-30
2023/12/09 14:34:02;;;;;;;71.00;31.90;;;;;;;0.35;100.00;99132.07;103769;1279;89388;-29
2023/12/09 14:36:28;;;;;;;45.60;21.90;;;;;;;0.25;100.00;99128.29;103979;1279;59269;-30
2023/12/09 14:38:53;;;;;;;37.40;18.50;;;;;;;0.23;100.00;99130.70;103994;1279;59294;-34
2023/12/09 14:41:19;;;;;;;35.40;15.70;;;;;;;0.22;100.00;99135.37;104080;1279;59333;-32
2023/12/09 14:43:47;;;;;;;29.70;13.40;;;;;;;0.22;100.00;99135.39;104021;1279;59365;-33
2023/12/09 14:46:16;;;;;;;36.30;15.40;;;;;;;0.17;100.00;99139.15;103764;1279;59275;-32
2023/12/09 14:48:42;;;;;;;31.50;15.00;;;;;;;0.16;100.00;99133.33;104177;1283;59229;-31
2023/12/09 14:51:08;;;;;;;32.60;15.10;;;;;;;0.17;100.00;99123.36;104031;1279;59231;-31
2023/12/09 14:53:34;;;;;;;34.50;16.60;;;;;;;0.19;100.00;99119.98;103971;1281;59254;-31
2023/12/09 14:56:01;;;;;;;37.00;17.00;;;;;;;0.18;100.00;99118.13;103922;1279;59728;-33
2023/12/09 14:58:26;;;;;;;;;;;;;;;0.18;100.00;99121.80;103972;1279;60123;-34
2023/12/09 15:00:53;;;;;;;40.30;16.50;;;;;;;0.14;100.00;99111.60;103991;1279;59728;-30
2023/12/09 15:03:18;;;;;;;36.20;16.50;;;;;;;0.13;100.00;99105.02;104025;1279;59760;-30
2023/12/09 15:05:44;;;;;;;36.30;15.00;;;;;;;0.16;100.00;99100.04;104026;1283;59747;-32
2023/12/09 15:08:10;;;;;;;34.20;15.70;;;;;;;0.15;100.00;99101.29;103965;1284;59775;-31
2023/12/09 15:10:37;;;;;;;42.80;19.80;;;;;;;0.21;100.00;99103.11;103995;1279;59822;-33
2023/12/09 15:13:03;;;;;;;55.10;22.20;;;;;;;0.21;100.00;99103.59;103693;1285;59766;-34
2023/12/09 15:15:30;;;;;;;43.00;19.30;;;;;;;0.24;100.00;99106.86;104013;1283;59552;-34
2023/12/09 15:17:56;;;;;;;38.60;18.00;;;;;;;0.27;100.00;99098.34;104032;1279;59692;-33
2023/12/09 15:20:22;;;;;;;34.60;16.30;;;;;;;0.27;100.00;99093.92;103933;1279;59577;-33
2023/12/09 15:22:49;;;;;;;35.30;16.20;;;;;;;0.27;100.00;99090.20;104037;1279;59654;-33
2023/12/09 15:27:45;;;;;;;28.50;14.20;;;;;;;0.32;100.00;99095.37;103975;1283;68220;-33
2023/12/09 15:30:11;;;;;;;30.60;14.40;;;;;;;0.32;100.00;99092.00;103981;1282;72649;-31
2023/12/09 15:32:42;;;;;;;35.40;14.50;;;;;;;0.33;100.00;99091.11;103968;1284;59687;-32
2023/12/09 15:35:08;;;;;;;35.10;15.40;;;;;;;0.34;100.00;99090.09;104146;1279;59676;-32
2023/12/09 15:37:34;;;;;;;32.00;15.20;;;;;;;0.37;100.00;99078.44;103988;1281;59687;-31
2023/12/09 15:40:00;;;;;;;37.00;15.70;;;;;;;0.36;100.00;99076.55;104064;1279;59667;-30
2023/12/09 15:42:26;;;;;;;33.40;16.00;;;;;;;0.35;100.00;99076.98;103865;1284;59724;-34
2023/12/09 15:44:52;;;;;;;;;;;;;;;0.38;100.00;99075.52;103988;1283;59649;-32
2023/12/09 15:47:18;;;;;;;29.40;13.70;;;;;;;0.36;100.00;99077.91;103896;1279;59765;-31
2023/12/09 15:49:44;;;;;;;35.20;14.70;;;;;;;0.39;100.00;99076.99;103988;1279;59740;-33
2023/12/09 15:52:15;;;;;;;30.80;13.60;;;;;;;0.37;100.00;99078.02;103975;1279;59642;-31
2023/12/09 15:54:41;;;;;;;31.60;14.80;;;;;;;0.40;100.00;99068.04;103989;1279;73505;-32
2023/12/09 15:57:07;;;;;;;31.70;13.60;;;;;;;0.36;100.00;99069.15;104032;1284;59771;-33
2023/12/09 15:59:32;;;;;;;27.00;12.90;;;;;;;0.36;100.00;99069.67;103939;1284;59780;-34
2023/12/09 16:01:58;;;;;;;24.20;11.70;;;;;;;0.30;100.00;99065.29;103929;1279;59689;-34
2023/12/09 16:04:24;;;;;;;25.10;12.80;;;;;;;0.33;100.00;99064.67;103992;1279;59759;-33
2023/12/09 16:06:50;;;;;;;29.30;13.50;;;;;;;0.33;100.00;99070.09;104144;1283;59638;-29
2023/12/09 16:09:16;;;;;;;27.30;13.50;;;;;;;0.42;100.00;99071.01;103935;1285;59748;-31
2023/12/09 16:11:43;;;;;;;28.30;13.50;;;;;;;0.47;100.00;99075.54;103653;1287;59678;-34
2023/12/09 16:14:09;;;;;;;32.30;15.40;;;;;;;0.43;100.00;99074.45;104086;1284;59704;-34
2023/12/09 16:16:35;;;;;;;;;;;;;;;0.43;100.00;99074.08;103985;1283;59752;-32
2023/12/09 16:19:01;;;;;;;126.90;35.10;;;;;;;0.40;100.00;99059.41;103895;1283;59706;-32
2023/12/09 16:21:27;;;;;;;97.80;29.70;;;;;;;0.38;100.00;99044.65;103971;1279;59675;-33
2023/12/09 16:23:53;;;;;;;96.10;33.20;;;;;;;0.37;100.00;99034.55;104112;1284;68055;-31
2023/12/09 16:26:20;;;;;;;112.40;37.50;;;;;;;0.37;100.00;99034.52;103976;1284;59635;-34
2023/12/09 16:28:46;;;;;;;131.90;44.10;;;;;;;0.31;100.00;99023.84;104026;1279;59628;-33
2023/12/09 16:31:12;;;;;;;;;;;;;;;0.28;100.00;99016.00;103962;1279;59741;-31
2023/12/09 16:33:38;;;;;;;196.10;54.30;;;;;;;0.24;100.00;99000.68;104008;1283;59723;-32
2023/12/09 16:36:04;;;;;;;428.30;111.60;;;;;;;0.23;100.00;98990.56;104065;1280;59781;-32
2023/12/09 16:38:33;;;;;;;341.00;82.30;;;;;;;0.18;100.00;98989.23;103951;1283;59717;-32
2023/12/09 16:40:59;;;;;;;331.00;80.70;;;;;;;0.13;100.00;98989.77;103942;1279;73160;-33
2023/12/09 16:43:25;;;;;;;;;;;;;;;0.07;100.00;98988.15;104042;1284;59702;-33
2023/12/09 16:45:51;;;;;;;235.90;60.10;;;;;;;0.02;100.00;98986.69;104096;1284;59785;-33
2023/12/09 16:48:17;;;;;;;;;;;;;;;-0.05;100.00;98984.48;104020;1283;59576;-30
2023/12/09 16:50:43;;;;;;;217.50;60.90;;;;;;;-0.14;100.00;98976.15;103996;1282;59679;-32
2023/12/09 16:53:09;;;;;;;;;;;;;;;-0.22;100.00;98970.02;104026;1280;59777;-30
2023/12/09 16:55:35;;;;;;;83.50;28.90;;;;;;;-0.31;100.00;98978.00;103981;1284;59763;-31
2023/12/09 16:58:01;;;;;;;74.00;27.10;;;;;;;-0.39;100.00;98978.83;103933;1279;59869;-32
2023/12/09 17:00:27;;;;;;;56.40;20.20;;;;;;;-0.51;100.00;98985.48;103650;1279;59656;-30
2023/12/09 17:02:53;;;;;;;46.70;18.40;;;;;;;-0.57;100.00;98984.05;104083;1279;59800;-30
2023/12/09 17:05:19;;;;;;;37.30;15.90;;;;;;;-0.61;100.00;98982.14;104128;1279;59640;-34
2023/12/09 17:07:45;;;;;;;34.40;15.30;;;;;;;-0.65;100.00;98986.30;104110;1279;59754;-31
2023/12/09 17:10:11;;;;;;;32.70;15.60;;;;;;;-0.68;100.00;98982.74;103966;1282;59740;-33
2023/12/09 17:12:39;;;;;;;28.40;14.20;;;;;;;-0.73;100.00;98982.30;103987;1279;59676;-33
2023/12/09 17:15:06;;;;;;;34.60;15.80;;;;;;;-0.77;100.00;98984.92;104022;1279;59642;-32
2023/12/09 17:17:31;;;;;;;28.70;13.60;;;;;;;-0.83;100.00;98977.91;103941;1279;72976;-33
2023/12/09 17:19:58;;;;;;;29.50;13.50;;;;;;;-0.86;100.00;98977.86;104032;1285;59675;-33
2023/12/09 17:22:25;;;;;;;30.50;13.90;;;;;;;-0.87;100.00;98972.45;103988;1283;59659;-32
2023/12/09 17:24:50;;;;;;;27.80;13.10;;;;;;;-0.91;100.00;98965.29;104077;1279;59779;-31
2023/12/09 17:27:16;;;;;;;;;;;;;;;-0.98;100.00;98961.14;104072;1279;59756;-32
2023/12/09 17:29:43;;;;;;;32.30;14.70;;;;;;;-1.04;100.00;98958.86;104125;1279;59759;-31
2023/12/09 17:32:09;;;;;;;30.50;14.10;;;;;;;-1.07;100.00;98951.76;104011;1279;59530;-30
2023/12/09 17:34:35;;;;;;;32.70;15.00;;;;;;;-1.09;100.00;98947.86;104032;1284;59771;-29
2023/12/09 17:37:01;;;;;;;35.70;15.70;;;;;;;-1.12;100.00;98945.27;103989;1284;59652;-31
2023/12/09 17:39:27;;;;;;;36.60;15.20;;;;;;;-1.14;100.00;98933.93;104042;1280;59750;-34
2023/12/09 17:41:56;;;;;;;;;;;;;;;-1.18;100.00;98931.55;104017;1284;59745;-31
2023/12/09 17:44:22;;;;;;;32.00;14.10;;;;;;;-1.19;100.00;98926.89;103901;1285;59621;-31
2023/12/09 17:46:48;;;;;;;33.20;15.30;;;;;;;-1.16;100.00;98922.95;104110;1279;59746;-32
2023/12/09 17:49:14;;;;;;;35.40;16.10;;;;;;;-1.15;100.00;98915.00;103753;1280;59777;-32
2023/12/09 17:51:39;;;;;;;40.40;17.10;;;;;;;-1.18;100.00;98901.92;103821;1279;59761;-33
2023/12/09 17:54:06;;;;;;;39.00;15.80;;;;;;;-1.19;100.00;98896.94;103962;1284;59795;-33
2023/12/09 17:56:31;;;;;;;;;;;;;;;-1.21;100.00;98887.39;104074;1279;60139;-29
2023/12/09 17:58:57;;;;;;;39.00;18.10;;;;;;;-1.24;100.00;98883.08;104044;1284;59679;-33
2023/12/09 18:01:24;;;;;;;41.00;18.10;;;;;;;-1.26;100.00;98872.41;104157;1279;59815;-31
2023/12/09 18:03:50;;;;;;;45.30;17.60;;;;;;;-1.31;100.00;98869.16;104082;1285;59703;-32
2023/12/09 18:06:16;;;;;;;43.50;18.20;;;;;;;-1.32;100.00;98867.35;103872;1284;59641;-33
2023/12/09 18:08:41;;;;;;;46.20;18.30;;;;;;;-1.39;100.00;98865.48;103966;1284;59698;-33
2023/12/09 18:11:07;;;;;;;44.50;18.00;;;;;;;-1.44;100.00;98855.71;104207;1284;59758;-30
2023/12/09 18:13:33;;;;;;;44.70;19.10;;;;;;;-1.45;100.00;98844.73;104016;1284;73422;-31
2023/12/09 18:15:59;;;;;;;48.40;18.50;;;;;;;-1.48;100.00;98834.23;104063;1285;59704;-31
2023/12/09 18:18:25;;;;;;;39.40;17.60;;;;;;;-1.48;100.00;98831.08;103914;1284;59830;-34
2023/12/09 18:20:51;;;;;;;38.80;16.30;;;;;;;-1.46;100.00;98832.16;103942;1284;59672;-33
2023/12/09 18:23:17;;;;;;;45.70;17.80;;;;;;;-1.47;100.00;98830.68;103956;1285;60095;-30
2023/12/09 18:25:43;;;;;;;;;;;;;;;-1.49;100.00;98832.92;104071;1285;59762;-31
2023/12/09 18:28:09;;;;;;;32.60;14.50;;;;;;;-1.48;100.00;98835.51;103964;1284;59769;-31
2023/12/09 18:30:36;;;;;;;38.60;16.20;;;;;;;-1.47;100.00;98838.03;104055;1280;59842;-30
2023/12/09 18:33:03;;;;;;;39.90;16.20;;;;;;;-1.49;100.00;98834.23;103860;1285;59689;-31
2023/12/09 18:35:28;;;;;;;;;;;;;;;-1.50;100.00;98838.08;104113;1280;60557;-30
2023/12/09 18:37:54;;;;;;;87.30;32.30;;;;;;;-1.54;100.00;98833.39;104070;1285;60476;-33
2023/12/09 18:40:22;;;;;;;190.40;60.80;;;;;;;-1.54;100.00;98830.06;104037;1279;60564;-30
2023/12/09 18:42:48;;;;;;;74.10;34.00;;;;;;;-1.51;100.00;98830.04;104004;1280;60483;-31
2023/12/09 18:45:14;;;;;;;177.00;77.00;;;;;;;-1.55;100.00;98831.91;104074;1285;60892;-32
2023/12/09 18:47:40;;;;;;;173.50;57.30;;;;;;;-1.56;100.00;98833.38;103859;1285;60558;-30
2023/12/09 18:50:06;;;;;;;625.90;225.40;;;;;;;-1.58;100.00;98833.19;104138;1285;61045;-31
2023/12/09 18:52:32;;;;;;;442.10;129.90;;;;;;;-1.60;100.00;98827.80;104018;1284;60549;-31
2023/12/09 19:34:40;;;;;;;40.00;18.90;;;;;;;-1.96;100.00;98756.71;103827;1279;613484;-38
2023/12/09 19:37:06;;;;;;;44.70;22.00;;;;;;;-1.85;100.00;98754.98;103824;1279;90872;-31
2023/12/09 19:39:31;;;;;;;52.40;17.10;;;;;;;-1.84;100.00;98752.86;103934;1280;59378;-30
2023/12/09 19:41:57;;;;;;;43.20;17.10;;;;;;;-1.85;100.00;98747.88;104007;1279;59306;-32
2023/12/09 19:44:23;;;;;;;34.60;15.00;;;;;;;-1.89;100.00;98740.96;103899;1279;59260;-32
2023/12/09 19:46:49;;;;;;;;;;;;;;;-1.85;100.00;98738.04;104115;1279;59358;-32
2023/12/09 19:49:15;;;;;;;32.20;14.30;;;;;;;-1.86;100.00;98739.84;103991;1283;59166;-31
2023/12/09 19:51:41;;;;;;;36.30;15.00;;;;;;;-1.85;100.00;98731.89;103938;1279;59296;-32
2023/12/09 19:54:07;;;;;;;36.20;15.60;;;;;;;-1.83;100.00;98728.70;103958;1279;59399;-32
2023/12/09 19:56:33;;;;;;;36.90;16.10;;;;;;;-1.81;100.00;98713.48;104130;1279;59292;-34
2023/12/09 19:58:58;;;;;;;32.10;13.80;;;;;;;-1.83;100.00;98697.33;104003;1279;59755;-31
2023/12/09 20:01:24;;;;;;;35.10;14.70;;;;;;;-1.84;100.00;98689.20;103848;1279;72097;-36
2023/12/09 20:03:50;;;;;;;28.30;13.30;;;;;;;-1.83;100.00;98687.64;103976;1283;59696;-32
2023/12/09 20:06:16;;;;;;;30.30;13.90;;;;;;;-1.82;100.00;98692.14;103995;1281;59662;-30
2023/12/09 20:08:42;;;;;;;;;;;;;;;-1.80;100.00;98692.45;103964;1283;59630;-32
2023/12/09 20:11:08;;;;;;;30.30;13.70;;;;;;;-1.82;100.00;98690.73;103896;1281;59701;-32
2023/12/09 20:13:34;;;;;;;30.50;14.50;;;;;;;-1.82;100.00;98689.67;104068;1283;59755;-32
2023/12/09 20:16:00;;;;;;;31.00;13.20;;;;;;;-1.83;100.00;98684.48;103884;1283;59755;-30
2023/12/09 20:18:25;;;;;;;;;;;;;;;-1.84;100.00;98680.91;103913;1279;59643;-32
2023/12/09 20:20:52;;;;;;;34.70;14.70;;;;;;;-1.85;100.00;98682.05;104002;1279;59758;-30
2023/12/09 20:23:19;;;;;;;36.20;15.70;;;;;;;-1.87;100.00;98684.46;103963;1279;59762;-32
2023/12/09 20:25:44;;;;;;;34.60;14.90;;;;;;;-1.85;100.00;98679.64;103961;1279;59755;-34
2023/12/09 20:28:10;;;;;;;38.40;15.10;;;;;;;-1.86;100.00;98679.83;103992;1279;59676;-31
2023/12/09 20:30:37;;;;;;;37.40;15.80;;;;;;;-1.89;100.00;98671.66;103956;1279;59804;-32
2023/12/09 20:33:03;;;;;;;35.40;15.90;;;;;;;-1.91;100.00;98669.35;104000;1279;59737;-29
2023/12/09 20:35:29;;;;;;;40.60;17.10;;;;;;;-1.94;100.00;98666.46;104173;1279;59576;-30
2023/12/09 20:37:56;;;;;;;36.50;15.80;;;;;;;-1.97;100.00;98662.77;103998;1279;59663;-30
2023/12/09 20:40:22;;;;;;;40.00;17.30;;;;;;;-1.96;100.00;98659.31;103962;1279;59705;-31
2023/12/09 20:42:48;;;;;;;40.40;16.90;;;;;;;-1.95;100.00;98656.27;103911;1283;59752;-31
2023/12/09 20:45:14;;;;;;;42.90;17.50;;;;;;;-1.96;100.00;98657.86;103789;1284;59766;-31
2023/12/09 20:47:41;;;;;;;40.70;17.10;;;;;;;-1.99;100.00;98653.10;103934;1279;59757;-30
2023/12/09 20:50:07;;;;;;;44.10;17.80;;;;;;;-1.99;100.00;98649.19;103938;1279;59759;-29
2023/12/09 20:52:32;;;;;;;;;;;;;;;-1.99;100.00;98638.50;103917;1279;59667;-30
2023/12/09 20:54:58;;;;;;;36.40;14.60;;;;;;;-2.00;100.00;98634.38;103871;1279;60297;-33
2023/12/09 20:57:24;;;;;;;37.40;15.60;;;;;;;-1.96;100.00;98627.05;103988;1279;59729;-31
2023/12/09 20:59:50;;;;;;;37.60;15.90;;;;;;;-1.93;100.00;98628.19;104099;1279;59727;-33
2023/12/09 21:02:16;;;;;;;33.60;15.80;;;;;;;-1.93;100.00;98627.24;103942;1279;59761;-32
2023/12/09 21:04:44;;;;;;;;;;;;;;;-1.89;100.00;98629.57;103906;1279;59664;-33
2023/12/09 21:07:10;;;;;;;41.20;16.00;;;;;;;-1.84;100.00;98628.99;104047;1279;59684;-32
2023/12/09 21:09:37;;;;;;;;;;;;;;;-1.79;100.00;98627.09;103895;1279;59778;-32
2023/12/09 21:12:04;;;;;;;29.90;12.90;;;;;;;-1.76;100.00;98622.09;103980;1283;59785;-30
2023/12/09 21:14:30;;;;;;;34.30;15.00;;;;;;;-1.76;100.00;98608.40;104043;1279;59741;-31
2023/12/09 21:16:55;;;;;;;39.00;15.20;;;;;;;-1.75;100.00;98596.17;104012;1279;59643;-31
2023/12/09 21:19:25;;;;;;;30.10;12.80;;;;;;;-1.70;100.00;98588.58;104002;1279;59702;-31
2023/12/09 21:21:52;;;;;;;33.50;15.50;;;;;;;-1.66;100.00;98575.25;103925;1279;73490;-32
2023/12/09 21:24:18;;;;;;;33.20;13.90;;;;;;;-1.56;100.00;98561.89;104059;1279;68135;-31
2023/12/09 21:26:44;;;;;;;30.30;14.20;;;;;;;-1.51;100.00;98552.93;103904;1279;59772;-31
2023/12/09 21:29:09;;;;;;;30.00;13.10;;;;;;;-1.52;100.00;98537.46;104122;1279;59779;-31
2023/12/09 21:31:35;;;;;;;32.60;13.40;;;;;;;-1.46;100.00;98520.85;104066;1279;59730;-31
2023/12/09 21:34:02;;;;;;;30.60;13.90;;;;;;;-1.39;100.00;98505.14;103997;1279;59710;-32
2023/12/09 21:36:28;;;;;;;33.20;14.10;;;;;;;-1.36;100.00;98491.68;103970;1279;59732;-31
2023/12/09 21:38:53;;;;;;;33.00;14.40;;;;;;;-1.35;100.00;98493.55;104085;1279;59710;-31
2023/12/09 21:41:22;;;;;;;30.40;14.00;;;;;;;-1.33;100.00;98493.54;103973;1279;59747;-32
2023/12/09 21:43:49;;;;;;;29.50;13.60;;;;;;;-1.33;100.00;98503.73;103812;1284;59763;-30
2023/12/09 21:46:19;;;;;;;28.20;12.40;;;;;;;-1.32;100.00;98520.27;103997;1283;60180;-31
2023/12/09 21:48:45;;;;;;;30.30;14.70;;;;;;;-1.19;100.00;98525.04;103912;1283;60150;-30
2023/12/09 21:51:11;;;;;;;33.20;14.60;;;;;;;-1.15;100.00;98518.69;103927;1281;59641;-32
2023/12/09 21:53:38;;;;;;;32.00;14.20;;;;;;;-1.13;100.00;98503.09;103979;1283;60188;-31
2023/12/09 21:56:04;;;;;;;42.10;15.90;;;;;;;-1.12;100.00;98498.56;103791;1279;59699;-29
2023/12/09 21:58:30;;;;;;;48.50;17.90;;;;;;;-1.11;100.00;98494.80;104059;1279;59799;-32
2023/12/09 22:00:56;;;;;;;44.60;16.20;;;;;;;-1.12;100.00;98503.27;104001;1279;59758;-32
2023/12/09 22:03:22;;;;;;;39.00;16.60;;;;;;;-1.08;100.00;98513.00;103922;1279;59854;-31
2023/12/09 22:05:48;;;;;;;39.60;16.70;;;;;;;-1.03;100.00;98508.82;104000;1279;59747;-30
2023/12/09 22:08:13;;;;;;;38.10;15.90;;;;;;;-1.02;100.00;98505.87;104024;1279;59674;-32
2023/12/09 22:10:39;;;;;;;40.70;16.50;;;;;;;-1.04;100.00;98503.77;104009;1279;59774;-32
2023/12/09 22:13:05;;;;;;;34.20;15.20;;;;;;;-1.04;100.00;98495.73;103921;1279;59749;-31
2023/12/09 22:15:31;;;;;;;35.40;15.30;;;;;;;-0.93;100.00;98496.27;104036;1279;60321;-32
2023/12/09 22:17:57;;;;;;;;;;;;;;;-0.93;100.00;98493.42;104089;1279;59742;-31
2023/12/09 22:20:23;;;;;;;37.10;14.70;;;;;;;-0.96;100.00;98485.96;104012;1279;68188;-31
2023/12/09 22:22:49;;;;;;;40.00;16.90;;;;;;;-0.97;100.00;98477.63;103918;1283;59640;-36
2023/12/09 22:25:15;;;;;;;35.10;15.00;;;;;;;-0.98;100.00;98475.41;103966;1279;59753;-30
2023/12/09 22:27:41;;;;;;;39.40;15.60;;;;;;;-0.93;100.00;98475.17;103920;1279;59636;-30
2023/12/09 22:30:07;;;;;;;33.10;15.50;;;;;;;-0.98;100.00;98470.35;103926;1279;59773;-32
2023/12/09 22:32:33;;;;;;;33.30;14.50;;;;;;;-0.96;100.00;98472.28;103973;1279;60343;-32